createdAt,value
2023-03-18T00:01:04.668Z,99945.44
2023-03-18T00:02:08.237Z,99952.53
2023-03-18T00:03:11.906Z,99936.84
2023-03-18T00:04:14.164Z,99937.13
2023-03-18T00:05:16.397Z,99927.72
2023-03-18T00:06:20.266Z,99936.78
2023-03-18T00:07:23.080Z,99937.03
2023-03-18T00:08:25.837Z,99933.22
2023-03-18T00:09:32.523Z,99934.28
2023-03-18T00:10:35.357Z,99945.78
2023-03-18T00:11:40.878Z,99933.63
2023-03-18T00:12:43.995Z,99936.38
2023-03-18T00:13:47.579Z,99947.34
2023-03-18T00:14:50.050Z,99939.63
2023-03-18T00:15:53.433Z,99940.97
2023-03-18T00:16:56.271Z,99939.53
2023-03-18T00:17:59.992Z,99951.63
2023-03-18T00:19:02.973Z,99949.72
2023-03-18T00:20:07.079Z,99941.47
2023-03-18T00:21:10.139Z,99930.69
2023-03-18T00:22:12.671Z,99945.28
2023-03-18T00:23:14.853Z,99941.69
2023-03-18T00:24:18.838Z,99942.81
2023-03-18T00:25:21.561Z,99947.69
2023-03-18T00:26:27.858Z,99941.59
2023-03-18T00:27:30.545Z,99938.84
2023-03-18T00:28:32.875Z,99936.13
2023-03-18T00:29:38.576Z,99942.72
2023-03-18T00:30:42.897Z,99945.47
2023-03-18T00:31:45.244Z,99945.47
2023-03-18T00:32:47.607Z,99946.28
2023-03-18T00:33:50.689Z,99939.13
2023-03-18T00:34:55.210Z,99953.72
2023-03-18T00:35:58.239Z,99944.31
2023-03-18T00:37:00.466Z,99946.19
2023-03-18T00:38:07.708Z,99944.06
2023-03-18T00:39:11.156Z,99944.31
2023-03-18T00:40:17.559Z,99934.13
2023-03-18T00:41:21.918Z,99938.56
2023-03-18T00:42:25.850Z,99942.88
2023-03-18T00:43:33.756Z,99937.88
2023-03-18T00:44:40.222Z,99943.09
2023-03-18T00:45:43.909Z,99943.03
2023-03-18T00:46:57.395Z,99939.19
2023-03-18T00:47:59.621Z,99947.44
2023-03-18T00:49:05.261Z,99945.53
2023-03-18T00:50:08.930Z,99942.19
2023-03-18T00:51:14.232Z,99937.31
2023-03-18T00:52:16.526Z,99944.69
2023-03-18T00:53:18.855Z,99935.88
2023-03-18T00:54:21.335Z,99932.78
2023-03-18T00:55:24.424Z,99931.47
2023-03-18T00:56:29.550Z,99941.84
2023-03-18T00:57:31.897Z,99929.44
2023-03-18T00:58:35.238Z,99923.97
2023-03-18T00:59:37.468Z,99934.38
2023-03-18T01:00:41.391Z,99928.88
2023-03-18T01:01:43.868Z,99933.78
2023-03-18T01:02:48.633Z,99921.72
2023-03-18T01:03:50.836Z,99931.38
2023-03-18T01:04:57.197Z,99925.53
2023-03-18T01:06:00.715Z,99931.25
2023-03-18T01:07:02.995Z,99921.09
2023-03-18T01:08:05.469Z,99911.00
2023-03-18T01:09:09.111Z,99924.22
2023-03-18T01:10:12.898Z,99918.59
2023-03-18T01:11:17.514Z,99921.09
2023-03-18T01:12:19.709Z,99921.09
2023-03-18T01:13:23.987Z,99923.28
2023-03-18T01:14:28.768Z,99921.09
2023-03-18T01:15:31.103Z,99922.41
2023-03-18T01:16:33.628Z,99929.84
2023-03-18T01:17:36.181Z,99922.94
2023-03-18T01:18:40.245Z,99921.59
2023-03-18T01:19:43.600Z,99921.84
2023-03-18T01:20:45.784Z,99922.69
2023-03-18T01:21:49.116Z,99911.69
2023-03-18T01:22:51.585Z,99905.63
2023-03-18T01:23:54.677Z,99910.00
2023-03-18T01:24:57.787Z,99911.94
2023-03-18T01:26:07.323Z,99921.00
2023-03-18T01:27:10.950Z,99913.88
2023-03-18T01:28:14.792Z,99908.59
2023-03-18T01:29:19.223Z,99919.84
2023-03-18T01:30:23.713Z,99911.03
2023-03-18T01:31:28.748Z,99916.28
2023-03-18T01:32:36.139Z,99922.59
2023-03-18T01:33:38.654Z,99931.31
2023-03-18T01:34:41.589Z,99909.09
2023-03-18T01:35:43.950Z,99918.16
2023-03-18T01:36:48.124Z,99924.50
2023-03-18T01:37:50.406Z,99920.69
2023-03-18T01:38:52.644Z,99916.28
2023-03-18T01:39:55.455Z,99918.41
2023-03-18T01:41:00.988Z,99905.53
2023-03-18T01:42:05.581Z,99910.19
2023-03-18T01:43:20.593Z,99902.78
2023-03-18T01:44:24.863Z,99908.50
2023-03-18T01:45:30.631Z,99906.59
2023-03-18T01:46:42.989Z,99914.25
2023-03-18T01:47:46.684Z,99899.09
2023-03-18T01:48:52.143Z,99912.34
2023-03-18T01:49:54.655Z,99903.78
2023-03-18T01:51:01.756Z,99902.34
2023-03-18T01:52:06.340Z,99910.00
2023-03-18T01:53:14.074Z,99912.75
2023-03-18T01:54:17.163Z,99904.75
2023-03-18T01:55:22.791Z,99902.84
2023-03-18T01:56:25.250Z,99911.06
2023-03-18T01:57:30.273Z,99914.91
2023-03-18T01:58:54.028Z,99908.81
2023-03-18T01:59:57.513Z,99916.00
2023-03-18T02:01:18.177Z,99925.06
2023-03-18T02:02:22.148Z,99912.44
2023-03-18T02:03:27.621Z,99919.25
2023-03-18T02:04:36.607Z,99913.75
2023-03-18T02:05:40.410Z,99923.41
2023-03-18T02:06:44.317Z,99916.97
2023-03-18T02:07:48.461Z,99922.00
2023-03-18T02:08:50.948Z,99920.06
2023-03-18T02:09:54.756Z,99919.25
2023-03-18T02:10:57.136Z,99919.81
2023-03-18T02:12:01.613Z,99927.47
2023-03-18T02:13:08.775Z,99915.66
2023-03-18T02:14:15.399Z,99924.72
2023-03-18T02:15:21.638Z,99927.47
2023-03-18T02:16:34.722Z,99926.38
2023-03-18T02:17:41.463Z,99931.78
2023-03-18T02:18:49.327Z,99928.47
2023-03-18T02:20:22.461Z,99921.63
2023-03-18T02:22:16.406Z,99933.44
2023-03-18T02:23:25.835Z,99936.44
2023-03-18T02:24:46.451Z,99938.59
2023-03-18T02:26:29.129Z,99940.25
2023-03-18T02:27:36.225Z,99939.44
2023-03-18T02:28:41.325Z,99938.59
2023-03-18T02:29:45.655Z,99936.94
2023-03-18T02:30:55.981Z,99939.44
2023-03-18T02:32:03.086Z,99941.59
2023-03-18T02:33:06.384Z,99944.31
2023-03-18T02:34:10.349Z,99938.84
2023-03-18T02:35:14.653Z,99939.69
2023-03-18T02:36:28.433Z,99947.94
2023-03-18T02:37:31.126Z,99947.06
2023-03-18T02:38:35.380Z,99947.31
2023-03-18T02:39:38.817Z,99945.91
2023-03-18T02:40:42.967Z,99946.16
2023-03-18T02:41:51.297Z,99946.72
2023-03-18T02:42:55.307Z,99950.88
2023-03-18T02:44:00.289Z,99949.25
2023-03-18T02:45:33.615Z,99943.97
2023-03-18T02:47:03.343Z,99946.16
2023-03-18T02:48:09.235Z,99950.22
2023-03-18T02:49:12.191Z,99947.22
2023-03-18T02:50:14.901Z,99952.97
2023-03-18T02:51:18.553Z,99959.28
2023-03-18T02:52:21.188Z,99954.84
2023-03-18T02:53:23.453Z,99957.59
2023-03-18T02:54:28.922Z,99962.28
2023-03-18T02:55:31.368Z,99953.47
2023-03-18T02:56:33.741Z,99955.34
2023-03-18T02:57:37.422Z,99964.44
2023-03-18T02:58:41.228Z,99957.84
2023-03-18T02:59:44.010Z,99963.59
2023-03-18T03:00:46.409Z,99963.84
2023-03-18T03:01:51.765Z,99960.03
2023-03-18T03:02:54.199Z,99959.19
2023-03-18T03:03:56.580Z,99966.59
2023-03-18T03:04:59.370Z,99964.34
2023-03-18T03:06:03.501Z,99958.84
2023-03-18T03:07:09.042Z,99966.47
2023-03-18T03:08:15.755Z,99968.97
2023-03-18T03:09:22.818Z,99970.28
2023-03-18T03:10:25.892Z,99956.00
2023-03-18T03:11:28.926Z,99965.88
2023-03-18T03:12:37.969Z,99957.91
2023-03-18T03:13:42.844Z,99966.97
2023-03-18T03:14:48.203Z,99966.97
2023-03-18T03:15:51.652Z,99974.63
2023-03-18T03:16:54.232Z,99970.78
2023-03-18T03:17:58.603Z,99970.09
2023-03-18T03:19:01.070Z,99965.19
2023-03-18T03:20:06.811Z,99979.50
2023-03-18T03:21:10.001Z,99974.25
2023-03-18T03:22:12.432Z,99967.34
2023-03-18T03:23:16.842Z,99973.06
2023-03-18T03:24:19.064Z,99966.28
2023-03-18T03:25:23.023Z,99973.06
2023-03-18T03:26:25.722Z,99985.13
2023-03-18T03:27:28.768Z,99977.75
2023-03-18T03:28:32.951Z,99985.72
2023-03-18T03:29:35.768Z,99977.25
2023-03-18T03:30:39.330Z,99981.66
2023-03-18T03:31:41.796Z,99978.31
2023-03-18T03:32:44.695Z,99980.81
2023-03-18T03:33:48.346Z,99987.16
2023-03-18T03:34:52.008Z,99984.97
2023-03-18T03:35:54.915Z,99986.09
2023-03-18T03:36:58.366Z,99984.97
2023-03-18T03:38:02.195Z,99998.97
2023-03-18T03:39:04.704Z,99997.53
2023-03-18T03:40:12.440Z,99984.41
2023-03-18T03:41:16.182Z,99985.22
2023-03-18T03:42:19.154Z,99995.38
2023-03-18T03:43:21.470Z,100001.34
2023-03-18T03:44:24.548Z,99994.53
2023-03-18T03:45:27.373Z,100005.50
2023-03-18T03:46:29.836Z,99995.03
2023-03-18T03:47:33.790Z,100002.19
2023-03-18T03:48:36.199Z,99995.84
2023-03-18T03:49:39.818Z,99997.78
2023-03-18T03:50:42.121Z,99998.59
2023-03-18T03:51:44.569Z,99998.59
2023-03-18T03:52:47.313Z,100004.59
2023-03-18T03:53:49.625Z,100005.06
2023-03-18T03:54:52.494Z,100010.31
2023-03-18T03:55:57.368Z,100000.16
2023-03-18T03:57:01.513Z,99996.34
2023-03-18T03:58:04.799Z,99997.16
2023-03-18T03:59:08.682Z,100001.59
2023-03-18T04:00:31.157Z,100004.84
2023-03-18T04:01:34.838Z,100009.72
2023-03-18T04:02:37.610Z,100011.13
2023-03-18T04:03:40.484Z,100014.75
2023-03-18T04:04:43.631Z,100005.91
2023-03-18T04:05:54.027Z,100023.22
2023-03-18T04:06:59.361Z,100014.97
2023-03-18T04:08:01.836Z,100024.28
2023-03-18T04:09:10.181Z,100015.19
2023-03-18T04:10:15.107Z,100018.78
2023-03-18T04:11:17.563Z,100018.19
2023-03-18T04:12:20.212Z,100019.03
2023-03-18T04:13:29.475Z,100022.59
2023-03-18T04:14:31.853Z,100022.59
2023-03-18T04:15:36.379Z,100025.59
2023-03-18T04:16:48.343Z,100025.84
2023-03-18T04:17:50.694Z,100024.75
2023-03-18T04:18:54.408Z,100024.75
2023-03-18T04:19:58.804Z,100024.75
2023-03-18T04:21:06.673Z,100022.59
2023-03-18T04:22:16.847Z,100020.09
2023-03-18T04:23:19.766Z,100021.78
2023-03-18T04:24:22.370Z,100022.00
2023-03-18T04:25:25.773Z,100023.94
2023-03-18T04:26:29.192Z,100023.56
2023-03-18T04:27:34.910Z,100027.38
2023-03-18T04:28:42.065Z,100015.56
2023-03-18T04:29:46.769Z,100017.50
2023-03-18T04:30:49.353Z,100020.72
2023-03-18T04:31:52.887Z,100026.44
2023-03-18T04:32:56.280Z,100028.13
2023-03-18T04:34:00.505Z,100029.19
2023-03-18T04:35:03.416Z,100029.66
2023-03-18T04:36:06.125Z,100034.06
2023-03-18T04:37:10.273Z,100030.13
2023-03-18T04:38:14.432Z,100031.00
2023-03-18T04:39:17.135Z,100027.38
2023-03-18T04:40:20.320Z,100037.19
2023-03-18T04:41:22.869Z,100034.44
2023-03-18T04:42:25.356Z,100030.63
2023-03-18T04:43:27.921Z,100032.53
2023-03-18T04:44:30.626Z,100036.59
2023-03-18T04:45:33.314Z,100038.97
2023-03-18T04:46:38.072Z,100045.53
2023-03-18T04:47:40.747Z,100032.88
2023-03-18T04:48:43.351Z,100042.78
2023-03-18T04:49:46.041Z,100052.31
2023-03-18T04:50:50.309Z,100028.94
2023-03-18T04:51:58.557Z,100038.00
2023-03-18T04:53:06.587Z,100047.53
2023-03-18T04:54:09.218Z,100036.34
2023-03-18T04:55:14.250Z,100045.41
2023-03-18T04:56:16.539Z,100042.06
2023-03-18T04:57:23.826Z,100037.66
2023-03-18T04:58:30.290Z,100048.63
2023-03-18T04:59:45.346Z,100046.97
2023-03-18T05:00:47.659Z,100044.72
2023-03-18T05:01:57.606Z,100032.31
2023-03-18T05:02:59.790Z,100036.94
2023-03-18T05:04:02.883Z,100029.78
2023-03-18T05:05:14.549Z,100038.25
2023-03-18T05:06:25.587Z,100039.09
2023-03-18T05:07:34.020Z,100035.38
2023-03-18T05:08:43.419Z,100048.03
2023-03-18T05:09:46.102Z,100041.47
2023-03-18T05:10:50.904Z,100045.03
2023-03-18T05:11:54.424Z,100050.06
2023-03-18T05:13:05.120Z,100048.97
2023-03-18T05:14:09.286Z,100043.72
2023-03-18T05:15:19.647Z,100044.59
2023-03-18T05:16:35.648Z,100051.72
2023-03-18T05:17:38.523Z,100048.75
2023-03-18T05:18:41.772Z,100053.38
2023-03-18T05:19:47.040Z,100050.41
2023-03-18T05:20:58.042Z,100052.31
2023-03-18T05:22:00.510Z,100045.16
2023-03-18T05:23:04.408Z,100054.44
2023-03-18T05:24:16.023Z,100050.06
2023-03-18T05:25:19.233Z,100053.63
2023-03-18T05:26:21.860Z,100058.28
2023-03-18T05:27:25.280Z,100056.84
2023-03-18T05:28:34.559Z,100049.22
2023-03-18T05:29:47.093Z,100047.53
2023-03-18T05:31:01.852Z,100049.47
2023-03-18T05:32:07.213Z,100053.03
2023-03-18T05:33:09.831Z,100057.06
2023-03-18T05:34:18.154Z,100057.06
2023-03-18T05:35:22.076Z,100056.50
2023-03-18T05:36:25.835Z,100054.19
2023-03-18T05:37:36.900Z,100055.28
2023-03-18T05:38:42.708Z,100052.56
2023-03-18T05:39:45.656Z,100052.56
2023-03-18T05:40:50.399Z,100052.56
2023-03-18T05:41:58.943Z,100054.81
2023-03-18T05:43:04.503Z,100062.22
2023-03-18T05:44:27.204Z,100056.94
2023-03-18T05:45:32.740Z,100054.81
2023-03-18T05:46:35.175Z,100057.19
2023-03-18T05:47:44.402Z,100066.25
2023-03-18T05:48:48.274Z,100061.00
2023-03-18T05:49:50.503Z,100057.44
2023-03-18T05:50:56.456Z,100064.22
2023-03-18T05:52:01.471Z,100063.97
2023-03-18T05:53:16.881Z,100060.41
2023-03-18T05:54:20.974Z,100064.22
2023-03-18T05:55:24.020Z,100066.13
2023-03-18T05:56:26.905Z,100064.69
2023-03-18T05:57:33.643Z,100065.03
2023-03-18T05:58:39.109Z,100074.13
2023-03-18T06:00:01.033Z,100074.94
2023-03-18T06:01:07.566Z,100071.38
2023-03-18T06:02:11.017Z,100066.13
2023-03-18T06:03:13.356Z,100066.13
2023-03-18T06:04:17.360Z,100066.13
2023-03-18T06:05:19.626Z,100068.03
2023-03-18T06:06:22.785Z,100068.63
2023-03-18T06:07:25.007Z,100067.56
2023-03-18T06:08:27.796Z,100078.28
2023-03-18T06:09:33.843Z,100084.34
2023-03-18T06:10:36.068Z,100078.28
2023-03-18T06:11:39.082Z,100082.22
2023-03-18T06:12:41.843Z,100073.19
2023-03-18T06:13:47.662Z,100077.44
2023-03-18T06:14:50.260Z,100092.00
2023-03-18T06:15:59.883Z,100078.06
2023-03-18T06:17:04.033Z,100082.22
2023-03-18T06:18:06.173Z,100079.47
2023-03-18T06:19:08.412Z,100081.75
2023-03-18T06:20:12.669Z,100086.16
2023-03-18T06:21:15.596Z,100078.78
2023-03-18T06:22:17.897Z,100091.78
2023-03-18T06:23:20.834Z,100089.03
2023-03-18T06:24:24.100Z,100095.38
2023-03-18T06:25:26.576Z,100091.91
2023-03-18T06:26:29.338Z,100093.34
2023-03-18T06:27:32.136Z,100086.53
2023-03-18T06:28:37.270Z,100086.31
2023-03-18T06:29:45.587Z,100088.59
2023-03-18T06:30:55.172Z,100093.81
2023-03-18T06:31:57.821Z,100079.38
2023-03-18T06:33:02.644Z,100087.16
2023-03-18T06:34:05.200Z,100096.81
2023-03-18T06:35:11.804Z,100083.69
2023-03-18T06:36:16.862Z,100085.34
2023-03-18T06:37:23.182Z,100086.78
2023-03-18T06:38:27.502Z,100081.31
2023-03-18T06:39:31.178Z,100084.41
2023-03-18T06:40:37.808Z,100088.09
2023-03-18T06:41:41.437Z,100086.78
2023-03-18T06:43:00.939Z,100103.25
2023-03-18T06:44:13.813Z,100094.56
2023-03-18T06:45:17.283Z,100092.38
2023-03-18T06:46:27.755Z,100085.59
2023-03-18T06:47:30.097Z,100078.78
2023-03-18T06:48:40.706Z,100087.97
2023-03-18T06:49:45.198Z,100085.56
2023-03-18T06:50:52.551Z,100090.59
2023-03-18T06:52:04.190Z,100094.84
2023-03-18T06:53:10.214Z,100085.09
2023-03-18T06:54:12.435Z,100096.66
2023-03-18T06:55:15.210Z,100099.50
2023-03-18T06:56:19.791Z,100097.13
2023-03-18T06:57:34.802Z,100095.53
2023-03-18T06:58:39.140Z,100083.59
2023-03-18T06:59:45.749Z,100091.09
2023-03-18T07:00:48.692Z,100101.34
2023-03-18T07:01:57.975Z,100089.66
2023-03-18T07:03:01.489Z,100091.19
2023-03-18T07:04:07.095Z,100092.13
2023-03-18T07:05:10.466Z,100079.06
2023-03-18T07:06:14.154Z,100091.59
2023-03-18T07:07:16.759Z,100087.63
2023-03-18T07:08:18.975Z,100082.81
2023-03-18T07:09:21.248Z,100090.06
2023-03-18T07:10:30.495Z,100089.56
2023-03-18T07:11:40.789Z,100098.72
2023-03-18T07:12:48.838Z,100092.00
2023-03-18T07:13:53.743Z,100094.31
2023-03-18T07:15:16.959Z,100095.00
2023-03-18T07:16:19.673Z,100089.59
2023-03-18T07:17:22.987Z,100078.44
2023-03-18T07:18:25.292Z,100096.88
2023-03-18T07:19:27.569Z,100099.91
2023-03-18T07:20:30.364Z,100096.69
2023-03-18T07:21:32.587Z,100088.78
2023-03-18T07:22:37.949Z,100094.84
2023-03-18T07:23:41.202Z,100090.50
2023-03-18T07:24:46.846Z,100083.66
2023-03-18T07:25:51.684Z,100090.09
2023-03-18T07:26:54.961Z,100093.16
2023-03-18T07:28:01.011Z,100091.06
2023-03-18T07:29:03.964Z,100095.00
2023-03-18T07:30:09.680Z,100096.41
2023-03-18T07:31:11.918Z,100082.16
2023-03-18T07:32:15.443Z,100116.34
2023-03-18T07:33:18.026Z,100096.03
2023-03-18T07:34:21.481Z,100091.72
2023-03-18T07:35:23.890Z,100089.03
2023-03-18T07:36:28.235Z,100092.59
2023-03-18T07:37:30.754Z,100099.84
2023-03-18T07:38:32.903Z,100086.69
2023-03-18T07:39:37.827Z,100085.94
2023-03-18T07:40:40.091Z,100080.97
2023-03-18T07:41:42.251Z,100092.91
2023-03-18T07:42:44.509Z,100092.97
2023-03-18T07:43:48.625Z,100093.03
2023-03-18T07:44:51.197Z,100102.47
2023-03-18T07:45:54.690Z,100089.25
2023-03-18T07:46:57.140Z,100099.50
2023-03-18T07:47:59.392Z,100095.41
2023-03-18T07:49:02.270Z,100090.47
2023-03-18T07:50:05.926Z,100098.75
2023-03-18T07:51:08.474Z,100099.91
2023-03-18T07:52:11.317Z,100088.03
2023-03-18T07:53:16.573Z,100090.28
2023-03-18T07:54:20.461Z,100094.44
2023-03-18T07:55:22.776Z,100097.44
2023-03-18T07:56:25.981Z,100088.94
2023-03-18T07:57:30.064Z,100089.75
2023-03-18T07:58:32.750Z,100090.56
2023-03-18T07:59:35.049Z,100102.72
2023-03-18T08:00:38.283Z,100097.75
2023-03-18T08:01:40.881Z,100085.66
2023-03-18T08:02:43.237Z,100093.31
2023-03-18T08:03:46.855Z,100088.94
2023-03-18T08:04:49.449Z,100103.25
2023-03-18T08:05:52.793Z,100096.66
2023-03-18T08:06:56.754Z,100093.38
2023-03-18T08:07:59.681Z,100087.88
2023-03-18T08:09:03.459Z,100102.56
2023-03-18T08:10:06.239Z,100094.03
2023-03-18T08:11:09.495Z,100091.88
2023-03-18T08:12:11.842Z,100091.00
2023-03-18T08:13:14.863Z,100091.88
2023-03-18T08:14:17.529Z,100101.53
2023-03-18T08:15:19.987Z,100096.03
2023-03-18T08:16:23.474Z,100100.13
2023-03-18T08:17:26.048Z,100101.53
2023-03-18T08:18:28.236Z,100112.31
2023-03-18T08:19:30.606Z,100101.81
2023-03-18T08:20:34.790Z,100099.66
2023-03-18T08:21:38.305Z,100097.22
2023-03-18T08:22:40.504Z,100097.78
2023-03-18T08:23:42.937Z,100106.91
2023-03-18T08:24:45.803Z,100093.16
2023-03-18T08:25:50.938Z,100104.19
2023-03-18T08:26:53.608Z,100102.84
2023-03-18T08:27:56.855Z,100096.78
2023-03-18T08:29:02.529Z,100099.88
2023-03-18T08:30:06.991Z,100108.69
2023-03-18T08:31:10.049Z,100109.84
2023-03-18T08:32:12.923Z,100106.03
2023-03-18T08:33:16.348Z,100109.38
2023-03-18T08:34:18.642Z,100108.34
2023-03-18T08:35:21.713Z,100104.50
2023-03-18T08:36:25.217Z,100123.59
2023-03-18T08:37:28.587Z,100117.00
2023-03-18T08:38:30.764Z,100112.38
2023-03-18T08:39:33.793Z,100115.16
2023-03-18T08:40:36.022Z,100107.53
2023-03-18T08:41:38.796Z,100111.16
2023-03-18T08:42:41.037Z,100122.00
2023-03-18T08:43:45.150Z,100110.72
2023-03-18T08:44:47.569Z,100111.28
2023-03-18T08:45:54.033Z,100118.53
2023-03-18T08:46:56.636Z,100108.59
2023-03-18T08:47:59.622Z,100108.09
2023-03-18T08:49:02.357Z,100126.09
2023-03-18T08:50:06.813Z,100123.38
2023-03-18T08:51:09.355Z,100123.38
2023-03-18T08:52:13.089Z,100110.47
2023-03-18T08:53:16.848Z,100119.03
2023-03-18T08:54:20.552Z,100115.78
2023-03-18T08:55:24.122Z,100114.44
2023-03-18T08:56:28.259Z,100121.38
2023-03-18T08:57:30.846Z,100109.78
2023-03-18T08:58:36.063Z,100114.25
2023-03-18T08:59:39.698Z,100126.72
2023-03-18T09:00:43.663Z,100105.16
2023-03-18T09:01:45.987Z,100108.50
2023-03-18T09:02:48.833Z,100111.56
2023-03-18T09:03:54.282Z,100123.19
2023-03-18T09:04:59.829Z,100121.56
2023-03-18T09:06:02.337Z,100101.63
2023-03-18T09:07:04.617Z,100108.28
2023-03-18T09:08:06.917Z,100107.16
2023-03-18T09:09:09.129Z,100098.88
2023-03-18T09:10:14.512Z,100104.13
2023-03-18T09:11:18.680Z,100103.84
2023-03-18T09:12:20.837Z,100111.03
2023-03-18T09:13:23.447Z,100104.97
2023-03-18T09:14:26.718Z,100105.78
2023-03-18T09:15:29.070Z,100115.19
2023-03-18T09:16:31.335Z,100109.06
2023-03-18T09:17:50.959Z,100108.53
2023-03-18T09:18:56.307Z,100092.72
2023-03-18T09:19:58.733Z,100108.78
2023-03-18T09:21:01.269Z,100107.94
2023-03-18T09:22:04.792Z,100106.25
2023-03-18T09:23:07.970Z,100108.50
2023-03-18T09:24:11.045Z,100109.56
2023-03-18T09:25:13.808Z,100109.28
2023-03-18T09:26:17.163Z,100117.88
2023-03-18T09:27:20.484Z,100111.47
2023-03-18T09:28:23.998Z,100107.00
2023-03-18T09:29:27.722Z,100103.94
2023-03-18T09:30:30.350Z,100101.13
2023-03-18T09:31:32.773Z,100099.47
2023-03-18T09:32:36.783Z,100099.44
2023-03-18T09:33:39.823Z,100103.84
2023-03-18T09:34:42.198Z,100106.88
2023-03-18T09:35:45.467Z,100098.53
2023-03-18T09:36:51.226Z,100110.19
2023-03-18T09:37:55.459Z,100109.59
2023-03-18T09:38:57.643Z,100103.75
2023-03-18T09:40:00.612Z,100109.28
2023-03-18T09:41:12.923Z,100109.84
2023-03-18T09:42:17.136Z,100106.47
2023-03-18T09:43:59.786Z,100116.16
2023-03-18T09:45:24.679Z,100106.41
2023-03-18T09:46:58.422Z,100099.50
2023-03-18T09:48:28.110Z,100091.41
2023-03-18T09:49:40.255Z,100095.78
2023-03-18T09:50:55.230Z,100096.38
2023-03-18T09:52:13.934Z,100101.09
2023-03-18T09:53:21.612Z,100091.63
2023-03-18T09:54:41.804Z,100091.88
2023-03-18T09:55:47.404Z,100097.38
2023-03-18T09:56:53.115Z,100095.69
2023-03-18T09:58:01.695Z,100103.16
2023-03-18T09:59:18.606Z,100100.91
2023-03-18T10:00:26.620Z,100102.06
2023-03-18T10:01:34.895Z,100110.09
2023-03-18T10:02:43.813Z,100101.47
2023-03-18T10:04:03.137Z,100105.91
2023-03-18T10:05:15.360Z,100112.00
2023-03-18T10:06:23.173Z,100098.97
2023-03-18T10:07:37.344Z,100100.63
2023-03-18T10:09:17.966Z,100106.16
2023-03-18T10:10:37.572Z,100103.38
2023-03-18T10:11:47.638Z,100116.13
2023-03-18T10:13:10.308Z,100115.31
2023-03-18T10:14:22.053Z,100106.41
2023-03-18T10:15:33.239Z,100110.03
2023-03-18T10:16:48.258Z,100110.34
2023-03-18T10:18:01.947Z,100108.94
2023-03-18T10:19:04.190Z,100100.03
2023-03-18T10:20:18.206Z,100104.19
2023-03-18T10:21:49.406Z,100109.44
2023-03-18T10:23:27.007Z,100118.91
2023-03-18T10:24:57.912Z,100113.91
2023-03-18T10:26:06.416Z,100109.72
2023-03-18T10:27:38.885Z,100115.81
2023-03-18T10:29:05.701Z,100106.63
2023-03-18T10:30:19.653Z,100104.41
2023-03-18T10:31:30.105Z,100100.25
2023-03-18T10:32:51.547Z,100106.88
2023-03-18T10:34:03.649Z,100107.66
2023-03-18T10:35:16.867Z,100112.41
2023-03-18T10:36:56.635Z,100108.81
2023-03-18T10:38:04.731Z,100107.34
2023-03-18T10:39:19.602Z,100117.06
2023-03-18T10:40:24.313Z,100112.88
2023-03-18T10:41:34.813Z,100104.31
2023-03-18T10:42:38.045Z,100106.25
2023-03-18T10:43:42.374Z,100113.16
2023-03-18T10:44:47.848Z,100111.25
2023-03-18T10:46:00.010Z,100107.31
2023-03-18T10:47:15.834Z,100108.16
2023-03-18T10:48:34.897Z,100109.28
2023-03-18T10:49:42.543Z,100100.41
2023-03-18T10:50:56.842Z,100100.69
2023-03-18T10:52:07.837Z,100110.13
2023-03-18T10:53:36.154Z,100106.25
2023-03-18T10:54:46.823Z,100114.06
2023-03-18T10:56:02.824Z,100113.22
2023-03-18T10:57:05.403Z,100122.97
2023-03-18T10:58:16.321Z,100108.53
2023-03-18T10:59:21.529Z,100112.16
2023-03-18T11:00:36.108Z,100109.66
2023-03-18T11:01:39.805Z,100116.88
2023-03-18T11:02:42.928Z,100116.59
2023-03-18T11:03:54.900Z,100111.31
2023-03-18T11:05:30.522Z,100112.44
2023-03-18T11:06:45.137Z,100112.44
2023-03-18T11:08:06.905Z,100106.59
2023-03-18T11:09:12.660Z,100118.00
2023-03-18T11:10:23.948Z,100121.59
2023-03-18T11:11:33.045Z,100113.25
2023-03-18T11:12:36.511Z,100117.41
2023-03-18T11:13:38.648Z,100121.84
2023-03-18T11:14:42.492Z,100117.94
2023-03-18T11:15:50.842Z,100117.94
2023-03-18T11:17:03.668Z,100129.31
2023-03-18T11:18:06.220Z,100105.94
2023-03-18T11:19:29.955Z,100117.03
2023-03-18T11:20:46.881Z,100110.34
2023-03-18T11:22:02.150Z,100108.63
2023-03-18T11:23:18.775Z,100103.63
2023-03-18T11:24:38.638Z,100112.22
2023-03-18T11:25:45.876Z,100108.84
2023-03-18T11:26:56.980Z,100111.88
2023-03-18T11:28:04.238Z,100109.59
2023-03-18T11:29:13.527Z,100109.03
2023-03-18T11:30:33.087Z,100105.66
2023-03-18T11:31:49.681Z,100110.91
2023-03-18T11:32:53.897Z,100112.56
2023-03-18T11:33:59.458Z,100102.56
2023-03-18T11:35:06.804Z,100118.75
2023-03-18T11:36:14.534Z,100105.66
2023-03-18T11:37:19.831Z,100122.03
2023-03-18T11:38:29.802Z,100111.50
2023-03-18T11:39:37.657Z,100103.72
2023-03-18T11:40:40.722Z,100110.91
2023-03-18T11:41:43.027Z,100112.06
2023-03-18T11:42:48.082Z,100107.88
2023-03-18T11:44:03.422Z,100119.00
2023-03-18T11:45:29.587Z,100112.56
2023-03-18T11:46:42.365Z,100116.47
2023-03-18T11:47:47.275Z,100108.44
2023-03-18T11:48:50.161Z,100104.53
2023-03-18T11:49:52.455Z,100105.97
2023-03-18T11:51:07.378Z,100106.78
2023-03-18T11:52:43.293Z,100107.91
2023-03-18T11:53:59.538Z,100101.81
2023-03-18T11:55:12.030Z,100102.06
2023-03-18T11:56:23.527Z,100110.09
2023-03-18T11:57:58.217Z,100110.41
2023-03-18T11:59:27.989Z,100098.16
2023-03-18T12:00:46.598Z,100099.81
2023-03-18T12:01:54.796Z,100100.94
2023-03-18T12:03:16.890Z,100102.56
2023-03-18T12:05:01.382Z,100101.22
2023-03-18T12:06:21.531Z,100098.97
2023-03-18T12:08:03.556Z,100095.38
2023-03-18T12:09:22.986Z,100099.28
2023-03-18T12:10:34.617Z,100104.53
2023-03-18T12:12:07.380Z,100103.47
2023-03-18T12:13:30.896Z,100094.84
2023-03-18T12:15:03.801Z,100097.38
2023-03-18T12:16:24.003Z,100099.34
2023-03-18T12:17:41.496Z,100101.28
2023-03-18T12:19:16.159Z,100100.75
2023-03-18T12:20:32.733Z,100099.97
2023-03-18T12:22:08.362Z,100100.50
2023-03-18T12:23:41.337Z,100100.50
2023-03-18T12:24:54.737Z,100100.50
2023-03-18T12:26:23.522Z,100107.47
2023-03-18T12:27:29.849Z,100103.88
2023-03-18T12:29:17.555Z,100100.25
2023-03-18T12:30:38.833Z,100098.06
2023-03-18T12:31:57.493Z,100091.69
2023-03-18T12:33:18.452Z,100095.03
2023-03-18T12:34:24.615Z,100097.31
2023-03-18T12:35:53.053Z,100093.16
2023-03-18T12:37:17.537Z,100094.78
2023-03-18T12:38:54.309Z,100086.75
2023-03-18T12:40:12.715Z,100103.44
2023-03-18T12:41:30.967Z,100083.47
2023-03-18T12:42:42.618Z,100096.78
2023-03-18T12:44:10.197Z,100097.91
2023-03-18T12:45:25.159Z,100095.97
2023-03-18T12:46:40.385Z,100094.31
2023-03-18T12:47:55.147Z,100088.50
2023-03-18T12:49:20.183Z,100099.31
2023-03-18T12:50:38.432Z,100092.13
2023-03-18T12:51:47.806Z,100090.16
2023-03-18T12:53:01.083Z,100094.91
2023-03-18T12:54:13.609Z,100092.13
2023-03-18T12:55:29.499Z,100099.03
2023-03-18T12:56:36.588Z,100092.34